Terminal Aerodrome Forecast
Issued by NWS

Current Version | Previous Version | Text Only | Print | Product List | Glossary On
Versions: 1 2 3 4 5 6 7 8 9 10 11 12 13
000
FTUS44 KEPZ 241720
TAFDMN
TAF
KDMN 241720Z 2418/2518 25006KT P6SM SKC
     FM242000 27016G26KT P6SM SKC
     FM250300 28011KT P6SM SCT250
     FM251600 26015G25KT P6SM SCT250=

USA.gov is the U.S. government's official web portal to all federal, state and local government web resources and services.